createdAt,value
2022-09-21T00:00:52.854Z,80.30
2022-09-21T00:03:19.621Z,79.70
2022-09-21T00:05:46.368Z,79.50
2022-09-21T00:08:13.659Z,79.50
2022-09-21T00:10:40.523Z,80.30
2022-09-21T00:13:08.929Z,79.80
2022-09-21T00:15:35.645Z,80.10
2022-09-21T00:18:03.836Z,80.60
2022-09-21T00:20:30.589Z,81.90
2022-09-21T00:22:57.297Z,81.20
2022-09-21T00:25:24.035Z,81.20
2022-09-21T00:27:51.393Z,81.10
2022-09-21T00:30:18.289Z,80.40
2022-09-21T00:32:44.988Z,80.00
2022-09-21T00:35:11.679Z,80.20
2022-09-21T00:37:38.421Z,80.60
2022-09-21T00:40:05.595Z,80.70
2022-09-21T00:42:33.695Z,81.00
2022-09-21T00:45:00.521Z,81.60
2022-09-21T00:47:40.573Z,81.30
2022-09-21T00:50:15.356Z,81.80
2022-09-21T00:53:00.693Z,82.00
2022-09-21T00:55:34.932Z,82.60
2022-09-21T00:58:09.291Z,82.20
2022-09-21T01:00:36.997Z,81.40
2022-09-21T01:03:04.906Z,81.20
2022-09-21T01:05:31.649Z,81.30
2022-09-21T01:08:00.143Z,81.00
2022-09-21T01:10:27.500Z,81.60
2022-09-21T01:13:08.950Z,81.20
2022-09-21T01:15:46.375Z,81.20
2022-09-21T01:18:31.093Z,81.90
2022-09-21T01:21:12.344Z,82.50
2022-09-21T01:23:47.808Z,82.50
2022-09-21T01:26:22.942Z,82.40
2022-09-21T01:29:22.029Z,81.70
2022-09-21T01:31:54.187Z,81.60
2022-09-21T01:34:44.994Z,81.70
2022-09-21T01:37:14.337Z,81.50
2022-09-21T01:39:41.119Z,81.60
2022-09-21T01:42:07.903Z,81.50
2022-09-21T01:44:35.385Z,81.80
2022-09-21T01:47:02.970Z,82.40
2022-09-21T01:49:46.274Z,82.40
2022-09-21T01:52:23.190Z,82.60
2022-09-21T01:54:52.627Z,82.90
2022-09-21T01:57:35.049Z,82.70
2022-09-21T02:00:01.976Z,82.80
2022-09-21T02:02:32.150Z,82.60
2022-09-21T02:05:01.370Z,82.40
2022-09-21T02:07:28.096Z,82.30
2022-09-21T02:09:56.219Z,81.80
2022-09-21T02:12:23.290Z,82.20
2022-09-21T02:14:50.457Z,82.20
2022-09-21T02:17:46.760Z,82.20
2022-09-21T02:20:21.536Z,82.40
2022-09-21T02:22:57.697Z,82.90
2022-09-21T02:25:42.077Z,83.70
2022-09-21T02:28:14.796Z,84.00
2022-09-21T02:30:41.628Z,84.00
2022-09-21T02:33:11.464Z,84.90
2022-09-21T02:35:48.240Z,83.70
2022-09-21T02:38:22.921Z,83.70
2022-09-21T02:40:54.108Z,84.60
2022-09-21T02:43:32.227Z,83.60
2022-09-21T02:46:24.311Z,83.20
2022-09-21T02:48:53.307Z,83.60
2022-09-21T02:51:28.346Z,83.50
2022-09-21T02:53:55.054Z,83.90
2022-09-21T02:56:21.854Z,85.30
2022-09-21T02:58:50.912Z,86.00
2022-09-21T03:01:17.618Z,86.50
2022-09-21T03:03:44.816Z,86.40
2022-09-21T03:06:11.631Z,86.60
2022-09-21T03:08:38.344Z,85.90
2022-09-21T03:11:05.244Z,85.60
2022-09-21T03:13:32.009Z,85.60
2022-09-21T03:16:02.860Z,85.30
2022-09-21T03:18:30.007Z,86.00
2022-09-21T03:20:56.890Z,85.70
2022-09-21T03:23:23.661Z,86.20
2022-09-21T03:25:52.273Z,86.00
2022-09-21T03:28:19.475Z,86.80
2022-09-21T03:30:47.064Z,86.70
2022-09-21T03:33:13.944Z,87.90
2022-09-21T03:35:40.923Z,87.70
2022-09-21T03:38:08.197Z,88.10
2022-09-21T03:40:35.014Z,87.80
2022-09-21T03:43:01.786Z,87.70
2022-09-21T03:45:28.544Z,87.20
2022-09-21T03:47:59.344Z,86.70
2022-09-21T03:50:28.237Z,86.50
2022-09-21T03:52:58.372Z,87.00
2022-09-21T03:55:25.204Z,87.10
2022-09-21T03:57:51.969Z,87.60
2022-09-21T04:00:18.694Z,87.80
2022-09-21T04:02:45.524Z,89.10
2022-09-21T04:05:14.691Z,90.00
2022-09-21T04:07:42.109Z,90.30
2022-09-21T04:10:12.961Z,90.30
2022-09-21T04:12:42.378Z,90.60
2022-09-21T04:15:11.187Z,90.80
2022-09-21T04:17:37.962Z,90.50
2022-09-21T04:20:05.261Z,90.30
2022-09-21T04:22:31.964Z,90.20
2022-09-21T04:24:58.672Z,90.00
2022-09-21T04:27:25.412Z,90.00
2022-09-21T04:29:52.207Z,90.20
2022-09-21T04:32:19.323Z,90.30
2022-09-21T04:34:46.020Z,90.20
2022-09-21T04:37:12.734Z,90.50
2022-09-21T04:39:39.656Z,91.30
2022-09-21T04:42:07.127Z,91.60
2022-09-21T04:44:33.867Z,91.30
2022-09-21T04:47:00.654Z,91.00
2022-09-21T04:49:27.621Z,91.10
2022-09-21T04:51:54.371Z,91.00
2022-09-21T04:54:21.138Z,90.60
2022-09-21T04:56:48.004Z,90.80
2022-09-21T04:59:14.737Z,90.50
2022-09-21T05:01:41.502Z,90.40
2022-09-21T05:04:08.302Z,90.50
2022-09-21T05:06:35.133Z,90.80
2022-09-21T05:09:20.397Z,89.80
2022-09-21T05:11:47.166Z,87.40
2022-09-21T05:14:13.934Z,86.90
2022-09-21T05:16:40.684Z,86.50
2022-09-21T05:19:07.638Z,86.40
2022-09-21T05:21:34.339Z,85.80
2022-09-21T05:24:01.234Z,85.60
2022-09-21T05:26:27.932Z,85.40
2022-09-21T05:28:54.994Z,85.30
2022-09-21T05:31:30.508Z,82.40
2022-09-21T05:34:04.651Z,82.10
2022-09-21T05:36:47.484Z,81.20
2022-09-21T05:39:14.528Z,81.10
2022-09-21T05:41:41.600Z,80.70
2022-09-21T05:44:13.138Z,80.60
2022-09-21T05:46:58.907Z,80.00
2022-09-21T05:49:41.119Z,79.90
2022-09-21T05:52:22.367Z,80.30
2022-09-21T05:55:12.630Z,80.60
2022-09-21T05:57:57.077Z,80.90
2022-09-21T06:00:24.175Z,81.00
2022-09-21T06:03:18.485Z,79.70
2022-09-21T06:05:45.314Z,79.20
2022-09-21T06:08:12.021Z,79.30
2022-09-21T06:10:38.778Z,78.50
2022-09-21T06:13:05.507Z,78.40
2022-09-21T06:15:33.205Z,78.20
2022-09-21T06:17:59.918Z,78.40
2022-09-21T06:20:26.692Z,78.10
2022-09-21T06:22:53.432Z,78.70
2022-09-21T06:25:20.346Z,79.30
2022-09-21T06:27:47.175Z,79.70
2022-09-21T06:30:14.024Z,80.10
2022-09-21T06:32:40.815Z,80.70
2022-09-21T06:35:07.936Z,80.90
2022-09-21T06:37:34.710Z,80.30
2022-09-21T06:40:01.600Z,79.90
2022-09-21T06:42:28.408Z,79.80
2022-09-21T06:44:55.684Z,79.40
2022-09-21T06:47:22.605Z,79.10
2022-09-21T06:49:49.460Z,78.00
2022-09-21T06:52:16.261Z,78.70
2022-09-21T06:54:43.165Z,79.20
2022-09-21T06:57:09.930Z,79.30
2022-09-21T06:59:37.075Z,79.10
2022-09-21T07:02:04.586Z,79.30
2022-09-21T07:04:32.327Z,79.20
2022-09-21T07:07:01.503Z,79.10
2022-09-21T07:12:16.498Z,80.10
2022-09-21T07:14:45.031Z,80.90
2022-09-21T07:17:15.650Z,80.60
2022-09-21T07:19:42.916Z,81.50
2022-09-21T07:22:09.972Z,81.00
2022-09-21T07:24:37.188Z,79.70
2022-09-21T07:27:04.668Z,77.70
2022-09-21T07:29:31.468Z,77.50
2022-09-21T07:31:58.563Z,77.50
2022-09-21T07:34:25.414Z,78.90
2022-09-21T07:36:52.637Z,79.70
2022-09-21T07:39:19.425Z,79.90
2022-09-21T07:41:46.270Z,79.60
2022-09-21T07:44:13.426Z,79.50
2022-09-21T07:46:47.158Z,79.50
2022-09-21T07:49:15.468Z,79.20
2022-09-21T07:51:42.605Z,79.00
2022-09-21T07:54:10.945Z,78.60
2022-09-21T07:56:37.900Z,78.10
2022-09-21T07:59:08.248Z,78.10
2022-09-21T08:01:36.823Z,78.10
2022-09-21T08:04:04.350Z,78.80
2022-09-21T08:06:32.993Z,79.30
2022-09-21T08:09:00.377Z,80.00
2022-09-21T08:11:28.273Z,79.10
2022-09-21T08:13:56.698Z,78.90
2022-09-21T08:16:23.749Z,79.10
2022-09-21T08:18:51.458Z,79.00
2022-09-21T08:21:18.551Z,78.70
2022-09-21T08:23:46.000Z,78.40
2022-09-21T08:26:18.629Z,78.30
2022-09-21T08:28:49.938Z,77.80
2022-09-21T08:31:19.356Z,77.80
2022-09-21T08:33:47.031Z,77.80
2022-09-21T08:36:14.168Z,77.60
2022-09-21T08:38:41.172Z,78.60
2022-09-21T08:41:35.198Z,79.00
2022-09-21T08:44:13.930Z,78.80
2022-09-21T08:46:41.035Z,78.80
2022-09-21T08:49:14.723Z,78.50
2022-09-21T08:51:49.902Z,78.00
2022-09-21T08:54:26.840Z,77.70
2022-09-21T08:57:05.119Z,77.90
2022-09-21T08:59:34.243Z,77.30
2022-09-21T09:02:32.301Z,77.30
2022-09-21T09:05:32.170Z,77.40
2022-09-21T09:08:20.207Z,77.30
2022-09-21T09:11:25.855Z,77.10
2022-09-21T09:14:04.568Z,76.90
2022-09-21T09:17:16.129Z,76.80
2022-09-21T09:19:51.832Z,76.10
2022-09-21T09:22:22.734Z,75.80
2022-09-21T09:24:51.258Z,76.00
2022-09-21T09:27:20.336Z,76.90
2022-09-21T09:30:03.356Z,79.00
2022-09-21T09:32:48.428Z,78.60
2022-09-21T09:35:28.655Z,75.90
2022-09-21T09:38:01.067Z,76.20
2022-09-21T09:40:43.429Z,76.00
2022-09-21T09:43:33.019Z,76.30
2022-09-21T09:46:21.046Z,75.60
2022-09-21T09:49:12.351Z,75.50
2022-09-21T09:51:40.573Z,75.80
2022-09-21T09:54:18.158Z,75.60
2022-09-21T09:56:45.395Z,75.90
2022-09-21T09:59:20.928Z,75.50
2022-09-21T10:01:49.064Z,76.70
2022-09-21T10:04:17.588Z,76.70
2022-09-21T10:06:46.744Z,76.30
2022-09-21T10:09:20.504Z,76.70
2022-09-21T10:11:48.139Z,76.50
2022-09-21T10:14:34.305Z,76.70
2022-09-21T10:17:07.719Z,76.70
2022-09-21T10:19:34.708Z,76.40
2022-09-21T10:22:02.395Z,76.70
2022-09-21T10:24:35.988Z,76.50
2022-09-21T10:27:48.515Z,76.30
2022-09-21T10:30:38.522Z,76.40
2022-09-21T10:33:19.011Z,76.60
2022-09-21T10:35:50.729Z,76.70
2022-09-21T10:38:23.088Z,76.80
2022-09-21T10:40:50.157Z,76.60
2022-09-21T10:43:46.497Z,76.80
2022-09-21T10:46:13.242Z,76.50
2022-09-21T10:48:39.998Z,76.30
2022-09-21T10:51:06.771Z,76.10
2022-09-21T10:53:36.984Z,76.00
2022-09-21T10:56:17.573Z,76.30
2022-09-21T10:59:10.529Z,76.10
2022-09-21T11:01:37.457Z,76.10
2022-09-21T11:04:08.747Z,75.80
2022-09-21T11:06:40.258Z,74.40
2022-09-21T11:09:10.866Z,74.60
2022-09-21T11:11:43.169Z,75.00
2022-09-21T11:14:31.201Z,74.80
2022-09-21T11:17:31.470Z,74.00
2022-09-21T11:20:23.054Z,73.70
2022-09-21T11:23:20.807Z,73.70
2022-09-21T11:26:11.697Z,73.80
2022-09-21T11:29:13.421Z,72.80
2022-09-21T11:31:50.992Z,73.00
2022-09-21T11:34:42.526Z,72.70
2022-09-21T11:37:24.372Z,72.80
2022-09-21T11:40:01.492Z,72.50
2022-09-21T11:42:40.806Z,72.00
2022-09-21T11:45:21.212Z,72.10
2022-09-21T11:47:59.423Z,72.00
2022-09-21T11:50:36.637Z,72.20
2022-09-21T11:53:25.650Z,73.60
2022-09-21T11:56:02.298Z,67.50
2022-09-21T11:58:39.893Z,65.50
2022-09-21T12:01:25.091Z,64.00
2022-09-21T12:04:09.311Z,65.40
2022-09-21T12:06:57.629Z,65.50
2022-09-21T12:09:56.269Z,66.60
2022-09-21T12:12:32.837Z,68.40
2022-09-21T12:15:03.050Z,68.30
2022-09-21T12:18:08.450Z,68.40
2022-09-21T12:20:42.344Z,68.90
2022-09-21T12:23:23.687Z,69.00
2022-09-21T12:25:53.252Z,69.00
2022-09-21T12:28:31.894Z,69.00
2022-09-21T12:31:03.324Z,69.10
2022-09-21T12:33:40.496Z,69.40
2022-09-21T12:36:22.182Z,69.80
2022-09-21T12:39:15.776Z,69.70
2022-09-21T12:41:54.003Z,70.00
2022-09-21T12:44:52.252Z,69.70
2022-09-21T12:47:41.452Z,70.10
2022-09-21T12:50:17.627Z,70.20
2022-09-21T12:52:44.874Z,68.30
2022-09-21T12:55:39.047Z,65.90
2022-09-21T12:58:15.455Z,64.80
2022-09-21T13:01:26.530Z,64.10
2022-09-21T13:04:02.395Z,63.40
2022-09-21T13:06:44.281Z,62.00
2022-09-21T13:09:18.448Z,60.90
2022-09-21T13:12:09.700Z,61.50
2022-09-21T13:14:37.051Z,62.70
2022-09-21T13:17:05.098Z,63.30
2022-09-21T13:19:36.143Z,64.60
2022-09-21T13:22:16.103Z,63.00
2022-09-21T13:24:42.980Z,60.20
2022-09-21T13:27:09.692Z,57.50
2022-09-21T13:29:38.066Z,57.70
2022-09-21T13:32:14.289Z,58.60
2022-09-21T13:34:41.902Z,60.00
2022-09-21T13:37:12.077Z,60.40
2022-09-21T13:39:50.968Z,61.40
2022-09-21T13:42:30.052Z,61.00
2022-09-21T13:45:00.173Z,60.20
2022-09-21T13:47:36.394Z,59.20
2022-09-21T13:50:11.445Z,60.00
2022-09-21T13:52:47.542Z,59.60
2022-09-21T13:55:30.624Z,59.20
2022-09-21T13:57:59.052Z,58.60
2022-09-21T14:00:31.007Z,59.10
2022-09-21T14:03:01.012Z,59.90
2022-09-21T14:05:32.022Z,60.60
2022-09-21T14:08:00.217Z,61.10
2022-09-21T14:10:27.160Z,61.70
2022-09-21T14:12:54.184Z,62.00
2022-09-21T14:15:20.991Z,62.20
2022-09-21T14:18:15.748Z,63.20
2022-09-21T14:21:17.199Z,63.70
2022-09-21T14:24:08.942Z,64.00
2022-09-21T14:26:36.233Z,64.00
2022-09-21T14:29:28.148Z,63.90
2022-09-21T14:31:58.841Z,64.50
2022-09-21T14:34:32.137Z,64.60
2022-09-21T14:36:59.819Z,64.60
2022-09-21T14:39:32.081Z,64.50
2022-09-21T14:42:01.074Z,64.50
2022-09-21T14:44:31.466Z,64.60
2022-09-21T14:47:20.677Z,64.60
2022-09-21T14:49:57.478Z,64.50
2022-09-21T14:52:31.327Z,64.40
2022-09-21T14:55:17.356Z,64.50
2022-09-21T14:57:54.333Z,64.60
2022-09-21T15:00:26.660Z,64.30
2022-09-21T15:03:31.688Z,64.50
2022-09-21T15:06:23.561Z,64.00
2022-09-21T15:09:14.955Z,63.80
2022-09-21T15:11:47.128Z,64.10
2022-09-21T15:14:28.454Z,64.70
2022-09-21T15:16:55.166Z,64.30
2022-09-21T15:19:23.104Z,64.10
2022-09-21T15:21:51.947Z,65.40
2022-09-21T15:24:29.549Z,66.50
2022-09-21T15:27:06.221Z,64.60
2022-09-21T15:29:33.148Z,64.50
2022-09-21T15:32:00.684Z,64.20
2022-09-21T15:34:28.128Z,64.90
2022-09-21T15:36:54.875Z,64.60
2022-09-21T15:39:41.279Z,64.90
2022-09-21T15:42:07.971Z,64.80
2022-09-21T15:44:36.834Z,65.00
2022-09-21T15:47:04.639Z,65.30
2022-09-21T15:49:31.438Z,65.00
2022-09-21T15:52:11.497Z,65.30
2022-09-21T15:54:49.018Z,66.10
2022-09-21T15:57:48.982Z,66.40
2022-09-21T16:00:15.880Z,65.80
2022-09-21T16:02:57.103Z,66.00
2022-09-21T16:05:25.587Z,66.30
2022-09-21T16:08:07.977Z,66.90
2022-09-21T16:10:35.876Z,67.10
2022-09-21T16:13:38.836Z,67.10
2022-09-21T16:16:12.066Z,67.10
2022-09-21T16:18:49.660Z,67.20
2022-09-21T16:21:19.851Z,66.90
2022-09-21T16:23:51.419Z,66.50
2022-09-21T16:26:23.280Z,66.40
2022-09-21T16:28:55.729Z,66.60
2022-09-21T16:31:33.282Z,66.70
2022-09-21T16:34:01.649Z,66.50
2022-09-21T16:36:32.331Z,66.60
2022-09-21T16:39:00.135Z,66.80
2022-09-21T16:41:36.702Z,66.90
2022-09-21T16:44:03.502Z,66.90
2022-09-21T16:46:31.881Z,67.00
2022-09-21T16:49:00.842Z,66.60
2022-09-21T16:51:28.303Z,66.30
2022-09-21T16:53:56.477Z,66.50
2022-09-21T16:56:23.263Z,66.70
2022-09-21T16:58:50.048Z,66.60
2022-09-21T17:01:20.899Z,66.20
2022-09-21T17:03:48.870Z,66.20
2022-09-21T17:06:17.471Z,66.00
2022-09-21T17:08:49.564Z,65.90
2022-09-21T17:11:19.898Z,65.70
2022-09-21T17:13:50.290Z,66.30
2022-09-21T17:16:18.483Z,66.70
2022-09-21T17:18:46.057Z,67.10
2022-09-21T17:21:13.024Z,66.90
2022-09-21T17:23:40.124Z,66.20
2022-09-21T17:26:18.199Z,66.50
2022-09-21T17:28:45.243Z,66.70
2022-09-21T17:31:13.983Z,66.50
2022-09-21T17:33:44.442Z,66.10
2022-09-21T17:36:14.928Z,65.00
2022-09-21T17:38:42.440Z,65.10
2022-09-21T17:41:55.512Z,65.90
2022-09-21T17:45:12.870Z,66.30
2022-09-21T17:47:40.634Z,66.80
2022-09-21T17:50:13.621Z,66.90
2022-09-21T17:53:00.165Z,67.20
2022-09-21T17:55:27.180Z,66.90
2022-09-21T17:58:18.666Z,66.70
2022-09-21T18:00:45.708Z,66.50
2022-09-21T18:03:22.498Z,67.00
2022-09-21T18:05:57.161Z,67.20
2022-09-21T18:08:26.480Z,67.30
2022-09-21T18:11:11.735Z,67.30
2022-09-21T18:13:59.820Z,67.50
2022-09-21T18:16:30.682Z,67.90
2022-09-21T18:19:27.870Z,68.10
2022-09-21T18:21:59.725Z,68.40
2022-09-21T18:24:30.950Z,69.30
2022-09-21T18:26:58.468Z,68.60
2022-09-21T18:29:41.755Z,68.30
2022-09-21T18:32:33.831Z,68.50
2022-09-21T18:35:22.677Z,68.70
2022-09-21T18:38:09.679Z,71.90
2022-09-21T18:40:41.190Z,70.50
2022-09-21T18:43:40.606Z,75.10
2022-09-21T18:46:11.950Z,72.80
2022-09-21T18:49:00.561Z,72.00
2022-09-21T18:51:43.463Z,71.80
2022-09-21T18:54:22.122Z,72.60
2022-09-21T18:56:49.537Z,73.00
2022-09-21T18:59:17.408Z,74.80
2022-09-21T19:01:45.625Z,76.00
2022-09-21T19:04:13.393Z,77.20
2022-09-21T19:06:46.654Z,81.20
2022-09-21T19:09:13.834Z,80.20
2022-09-21T19:11:59.885Z,78.50
2022-09-21T19:14:32.445Z,77.00
2022-09-21T19:17:23.911Z,77.80
2022-09-21T19:20:02.351Z,77.20
2022-09-21T19:22:44.791Z,76.80
2022-09-21T19:25:25.572Z,77.10
2022-09-21T19:28:00.655Z,76.70
2022-09-21T19:30:27.766Z,76.50
2022-09-21T19:32:58.617Z,76.30
2022-09-21T19:35:29.940Z,76.40
2022-09-21T19:37:58.491Z,75.80
2022-09-21T19:40:32.549Z,75.70
2022-09-21T19:43:29.931Z,76.00
2022-09-21T19:46:05.141Z,76.40
2022-09-21T19:48:53.327Z,76.80
2022-09-21T19:51:38.625Z,76.00
2022-09-21T19:54:38.164Z,76.00
2022-09-21T19:57:37.463Z,75.90
2022-09-21T20:00:09.086Z,75.70
2022-09-21T20:02:54.076Z,75.30
2022-09-21T20:05:23.491Z,75.00
2022-09-21T20:08:07.573Z,74.50
2022-09-21T20:10:52.398Z,75.00
2022-09-21T20:14:01.132Z,76.00
2022-09-21T20:16:50.538Z,76.90
2022-09-21T20:19:30.424Z,77.00
2022-09-21T20:22:09.290Z,77.10
2022-09-21T20:24:47.772Z,77.10
2022-09-21T20:27:44.526Z,77.10
2022-09-21T20:30:13.204Z,76.60
2022-09-21T20:32:42.258Z,76.40
2022-09-21T20:35:20.658Z,76.70
2022-09-21T20:37:47.444Z,76.70
2022-09-21T20:40:14.725Z,76.90
2022-09-21T20:42:41.779Z,76.80
2022-09-21T20:45:09.433Z,77.30
2022-09-21T20:47:36.271Z,77.30
2022-09-21T20:50:03.560Z,77.20
2022-09-21T20:52:30.325Z,77.20
2022-09-21T20:54:57.040Z,77.30
2022-09-21T20:57:24.039Z,77.50
2022-09-21T20:59:50.766Z,77.20
2022-09-21T21:02:17.504Z,77.30
2022-09-21T21:04:44.190Z,77.40
2022-09-21T21:07:10.901Z,77.60
2022-09-21T21:09:37.699Z,77.60
2022-09-21T21:12:04.711Z,77.60
2022-09-21T21:14:31.407Z,77.70
2022-09-21T21:16:58.144Z,77.50
2022-09-21T21:19:24.932Z,77.80
2022-09-21T21:21:51.666Z,77.80
2022-09-21T21:24:36.847Z,78.70
2022-09-21T21:27:03.802Z,78.10
2022-09-21T21:29:31.557Z,78.30
2022-09-21T21:31:59.541Z,78.60
2022-09-21T21:34:26.466Z,79.00
2022-09-21T21:36:53.324Z,79.20
2022-09-21T21:39:20.031Z,78.10
2022-09-21T21:41:47.082Z,77.30
2022-09-21T21:44:13.858Z,77.20
2022-09-21T21:46:40.574Z,76.20
2022-09-21T21:49:07.319Z,76.50
2022-09-21T21:51:34.068Z,76.00
2022-09-21T21:54:00.789Z,76.40
2022-09-21T21:56:27.548Z,76.00
2022-09-21T21:58:54.884Z,75.10
2022-09-21T22:01:26.412Z,74.20
2022-09-21T22:03:55.057Z,73.80
2022-09-21T22:06:21.976Z,73.80
2022-09-21T22:08:48.950Z,74.60
2022-09-21T22:11:17.688Z,73.90
2022-09-21T22:13:45.180Z,73.70
2022-09-21T22:16:13.420Z,74.00
2022-09-21T22:18:40.512Z,74.10
2022-09-21T22:21:12.049Z,74.00
2022-09-21T22:23:38.852Z,73.90
2022-09-21T22:26:07.334Z,73.90
2022-09-21T22:28:34.602Z,73.80
2022-09-21T22:31:01.735Z,73.90
2022-09-21T22:33:33.356Z,73.90
2022-09-21T22:36:04.336Z,73.90
2022-09-21T22:38:31.883Z,73.90
2022-09-21T22:41:11.238Z,73.90
2022-09-21T22:43:38.046Z,73.90
2022-09-21T22:46:05.128Z,73.80
2022-09-21T22:48:32.017Z,74.00
2022-09-21T22:50:58.831Z,74.50
2022-09-21T22:53:25.620Z,74.20
2022-09-21T22:56:28.999Z,74.30
2022-09-21T22:58:57.558Z,74.30
2022-09-21T23:01:34.044Z,74.30
2022-09-21T23:04:02.979Z,74.40
2022-09-21T23:06:34.212Z,74.50
2022-09-21T23:09:02.116Z,74.50
2022-09-21T23:11:36.904Z,74.80
2022-09-21T23:14:03.904Z,75.20
2022-09-21T23:16:30.956Z,75.40
2022-09-21T23:18:58.098Z,75.40
2022-09-21T23:21:26.944Z,75.10
2022-09-21T23:24:01.523Z,75.00
2022-09-21T23:26:30.164Z,74.90
2022-09-21T23:28:58.224Z,75.00
2022-09-21T23:31:26.687Z,75.00
2022-09-21T23:33:56.072Z,75.30
2022-09-21T23:36:27.386Z,75.40
2022-09-21T23:38:54.324Z,75.10
2022-09-21T23:41:30.787Z,74.90
2022-09-21T23:43:57.939Z,74.90
2022-09-21T23:46:27.009Z,75.60
2022-09-21T23:48:53.929Z,74.80
2022-09-21T23:51:20.820Z,74.80
2022-09-21T23:53:47.671Z,75.60
2022-09-21T23:56:16.363Z,74.90
2022-09-21T23:58:43.181Z,74.90
